This demonstration page uses our WeatherBlox Daily Observations layout. Learn more.

36.17497, -115.13722

Hourly Observations for July 17, 2018

Temp ( °F °C ) Dew Point ( °F °C ) Humidity (%) Winds ( mph kmh ) Pressure ( in mb ) Visibility ( mi km ) Precip ( " mm )
12:53 am 00:53 Clear 94 34.4 57 13.9 29 29 E 7 11 29.8 1009 10 16.09344 0 0
1:53 am 01:53 Clear 93 33.9 58 14.4 31 31 Calm 29.8 1009 10 16.09344 0 0
2:53 am 02:53 Clear 90 32.2 59 15 35 35 SE 3 6 29.8 1009 10 16.09344 0 0
3:53 am 03:53 Clear 90 32.2 57 13.9 33 33 NNE 5 7 29.8 1009 10 16.09344 0 0
4:53 am 04:53 Clear 89 31.7 58 14.4 35 35 ENE 7 11 29.83 1010 10 16.09344 0 0
5:53 am 05:53 Sunny 88 31.1 58 14.4 36 36 NE 5 7 29.85 1011 10 16.09344 0 0
6:53 am 06:53 Sunny 90 32.2 58 14.4 34 34 Calm 29.88 1012 10 16.09344 0 0
7:53 am 07:53 Sunny 93 33.9 56 13.3 29 29 E 9 15 29.88 1012 10 16.09344 0 0
8:53 am 08:53 Sunny 96 35.6 55 12.8 25 25 ESE 10 17 29.91 1013 10 16.09344 0 0
9:53 am 09:53 Sunny 98 36.7 55 12.8 24 24 undefined N/A 29.88 1012 10 16.09344 0 0
10:53 am 10:53 Sunny 100 37.8 55 12.8 22 22 S 13 20 29.88 1012 10 16.09344 0 0
11:53 am 11:53 Sunny 102 38.9 57 13.9 23 23 E 9 15 29.88 1012 10 16.09344 0 0
12:53 pm 12:53 Sunny 104 40 57 13.9 21 21 ESE 10 17 29.88 1012 10 16.09344 0 0
1:53 pm 13:53 Sunny 105 40.6 56 13.3 20 20 E 7 11 29.85 1011 10 16.09344 0 0
2:53 pm 14:53 Sunny 107 41.7 56 13.3 19 19 N 7 11 29.83 1010 10 16.09344 0 0
3:53 pm 15:53 Sunny 107 41.7 55 12.8 18 18 S 8 13 29.8 1009 10 16.09344 0 0
4:53 pm 16:53 Sunny 109 42.8 54 12.2 16 16 SSE 12 19 29.77 1008 10 16.09344 0 0
5:53 pm 17:53 Sunny 109 42.8 54 12.2 16 16 SE 10 17 29.77 1008 10 16.09344 0 0
6:53 pm 18:53 Sunny 107 41.7 54 12.2 17 17 SSE 12 19 29.77 1008 10 16.09344 0 0
7:53 pm 19:53 Sunny 105 40.6 55 12.8 19 19 S 12 19 29.77 1008 10 16.09344 0 0
8:53 pm 20:53 Clear 103 39.4 55 12.8 20 20 S 13 20 29.8 1009 10 16.09344 0 0
9:53 pm 21:53 Clear 102 38.9 56 13.3 22 22 SSE 15 24 29.83 1010 10 16.09344 0 0
10:10 pm 22:10 Clear 99 37.2 57 13.9 25 25 E 30 48 29.74 1007 10 16.09344 0 0
10:53 pm 22:53 Clear 89 31.7 62 16.7 41 41 ENE 23 37 29.91 1013 10 16.09344 0 0
11:53 pm 23:53 Clear 90 32.2 62 16.7 39 39 E 24 39 29.94 1014 10 16.09344 0 0

Powered by AerisWeather